الصفحة الرئيسية
METAR-TAF:

METAR-TAF

مطار :

مطار الدار البيضاء أنفا

الدار البيضاء, المغرب

دائرة عرض: 33-34N, خط طول: 007-40W, ارتفاع: 62 متر

مراقبة الطقس الحالي

تاريخ ووقت الإصدار 1ساعة و 5 دقيقة قبل الساعة 13:00UTC
ريح 12 عقدة من الشمال/الشمال الغربي
درجة الحرارة 17°درجة مئوية
الرطوبة 72%
ضغط 1015 hPa
الرؤية 10 كم أو أكثر
غيوم متفرقة على ارتفاع 1600 قدم
غيوم متفرقة على ارتفاع 2600 قدم

METAR: GMMC 061300Z 34012KT 9999 SCT016 SCT026 17/12 Q1015

زمن: 15:05 (14:05 UTC)


TAF: مفقودة

أرصاد الطقس والتوقعات من أكثر من 4000 مطار (تقارير الطقس للمطار METAR والتنبؤ بالطقس بالمطارTAF).

المحطات المتاحة هي النقط الصفراء والحمراء على الخريطة.

حرك المؤشر فوق النقطة لمعرفة اسم المحطة.

ثم انقر لمعرفة أرصاد وتوقعات الطقس.

لتغيير الخارطة: اضغط على الأزرار الخضراء مع رمز الصليب الأسود للتكبير. على الزر الأخضر مع شرطة للتصغير، أو على الأسهم الخضراء للخرائط المجاورة.


METAR-TAF: